createdAt,value
2023-03-21T00:01:52.239Z,10.80
2023-03-21T00:04:19.590Z,10.80
2023-03-21T00:06:46.718Z,10.60
2023-03-21T00:09:13.798Z,10.70
2023-03-21T00:11:41.111Z,10.70
2023-03-21T00:14:08.874Z,10.80
2023-03-21T00:16:37.167Z,10.70
2023-03-21T00:19:07.434Z,10.60
2023-03-21T00:21:51.902Z,10.60
2023-03-21T00:24:23.028Z,10.80
2023-03-21T00:26:50.975Z,10.60
2023-03-21T00:29:18.119Z,10.50
2023-03-21T00:31:45.361Z,10.50
2023-03-21T00:36:40.567Z,11.00
2023-03-21T00:39:07.749Z,10.70
2023-03-21T00:41:42.480Z,10.50
2023-03-21T00:44:11.702Z,10.50
2023-03-21T00:46:57.451Z,10.50
2023-03-21T00:49:26.076Z,10.30
2023-03-21T00:51:54.989Z,10.20
2023-03-21T00:54:22.496Z,10.20
2023-03-21T00:56:49.608Z,10.30
2023-03-21T00:59:17.231Z,10.20
2023-03-21T01:01:46.468Z,10.30
2023-03-21T01:04:14.713Z,10.00
2023-03-21T01:06:42.413Z,10.00
2023-03-21T01:09:12.048Z,10.00
2023-03-21T01:11:39.249Z,10.10
2023-03-21T01:14:21.490Z,10.20
2023-03-21T01:16:50.170Z,10.00
2023-03-21T01:19:25.533Z,10.10
2023-03-21T01:21:53.849Z,10.10
2023-03-21T01:24:20.942Z,10.20
2023-03-21T01:26:48.054Z,10.20
2023-03-21T01:29:15.261Z,10.10
2023-03-21T01:31:42.364Z,10.10
2023-03-21T01:34:09.481Z,10.10
2023-03-21T01:36:36.907Z,10.10
2023-03-21T01:39:04.334Z,9.90
2023-03-21T01:41:42.323Z,9.70
2023-03-21T01:44:14.411Z,9.70
2023-03-21T01:47:11.375Z,9.70
2023-03-21T01:49:39.828Z,9.80
2023-03-21T01:52:18.930Z,9.70
2023-03-21T01:54:50.978Z,9.50
2023-03-21T01:57:21.889Z,9.50
2023-03-21T01:59:50.321Z,9.40
2023-03-21T02:02:27.251Z,9.40
2023-03-21T02:04:58.152Z,9.50
2023-03-21T02:07:28.811Z,9.50
2023-03-21T02:09:55.994Z,9.50
2023-03-21T02:12:23.334Z,9.40
2023-03-21T02:14:50.458Z,9.70
2023-03-21T02:17:29.422Z,9.70
2023-03-21T02:19:59.586Z,9.70
2023-03-21T02:22:41.886Z,9.50
2023-03-21T02:25:31.720Z,9.70
2023-03-21T02:27:58.765Z,9.40
2023-03-21T02:30:37.506Z,9.50
2023-03-21T02:33:43.714Z,9.50
2023-03-21T02:36:25.611Z,9.50
2023-03-21T02:39:07.766Z,9.80
2023-03-21T02:41:41.965Z,9.90
2023-03-21T02:44:11.709Z,10.20
2023-03-21T02:46:47.049Z,10.30
2023-03-21T02:49:17.437Z,10.10
2023-03-21T02:51:45.052Z,10.00
2023-03-21T02:54:45.444Z,10.10
2023-03-21T02:57:00.350Z,10.30
2023-03-21T02:59:27.487Z,10.40
2023-03-21T03:01:54.933Z,10.20
2023-03-21T03:04:27.342Z,10.20
2023-03-21T03:07:17.769Z,10.40
2023-03-21T03:09:44.829Z,10.60
2023-03-21T03:12:18.227Z,10.50
2023-03-21T03:15:03.177Z,10.60
2023-03-21T03:17:49.047Z,10.60
2023-03-21T03:20:19.200Z,10.40
2023-03-21T03:22:48.312Z,10.50
2023-03-21T03:25:24.983Z,10.60
2023-03-21T03:27:59.611Z,10.20
2023-03-21T03:30:35.468Z,10.30
2023-03-21T03:33:08.205Z,10.50
2023-03-21T03:35:35.316Z,10.70
2023-03-21T03:38:03.119Z,10.70
2023-03-21T03:40:38.359Z,10.70
2023-03-21T03:43:07.433Z,10.70
2023-03-21T03:45:35.605Z,10.60
2023-03-21T03:48:25.160Z,10.70
2023-03-21T03:50:54.315Z,10.50
2023-03-21T03:53:41.562Z,10.60
2023-03-21T03:56:09.692Z,10.70
2023-03-21T03:58:45.210Z,10.60
2023-03-21T04:01:13.952Z,10.60
2023-03-21T04:03:48.808Z,10.80
2023-03-21T04:06:17.265Z,10.90
2023-03-21T04:08:44.592Z,11.00
2023-03-21T04:11:13.515Z,10.70
2023-03-21T04:13:41.097Z,10.50
2023-03-21T04:16:08.988Z,10.30
2023-03-21T04:18:36.303Z,10.30
2023-03-21T04:21:07.607Z,10.00
2023-03-21T04:23:35.738Z,10.10
2023-03-21T04:26:03.643Z,10.10
2023-03-21T04:28:30.895Z,10.30
2023-03-21T04:31:03.780Z,10.30
2023-03-21T04:33:38.406Z,10.20
2023-03-21T04:36:06.557Z,9.90
2023-03-21T04:38:33.825Z,9.60
2023-03-21T04:41:01.141Z,9.40
2023-03-21T04:43:28.454Z,9.70
2023-03-21T04:45:55.786Z,9.90
2023-03-21T04:48:24.557Z,9.80
2023-03-21T04:50:52.001Z,9.60
2023-03-21T04:53:19.165Z,9.60
2023-03-21T04:55:46.286Z,9.60
2023-03-21T04:58:13.377Z,9.60
2023-03-21T05:00:40.565Z,9.30
2023-03-21T05:03:10.737Z,9.40
2023-03-21T05:05:38.316Z,9.50
2023-03-21T05:08:05.888Z,9.90
2023-03-21T05:10:33.128Z,9.80
2023-03-21T05:13:00.391Z,9.60
2023-03-21T05:15:27.519Z,9.70
2023-03-21T05:17:55.047Z,9.50
2023-03-21T05:20:22.134Z,9.50
2023-03-21T05:22:51.509Z,9.50
2023-03-21T05:25:21.132Z,9.50
2023-03-21T05:27:53.951Z,9.50
2023-03-21T05:30:21.282Z,9.80
2023-03-21T05:32:48.388Z,9.80
2023-03-21T05:35:15.565Z,10.10
2023-03-21T05:37:42.636Z,10.00
2023-03-21T05:40:10.223Z,10.20
2023-03-21T05:42:37.328Z,10.20
2023-03-21T05:45:04.681Z,10.40
2023-03-21T05:47:31.770Z,10.50
2023-03-21T05:49:58.919Z,10.20
2023-03-21T05:52:26.188Z,10.30
2023-03-21T05:54:53.373Z,10.30
2023-03-21T05:57:20.768Z,10.20
2023-03-21T05:59:47.853Z,10.10
2023-03-21T06:02:15.923Z,10.60
2023-03-21T06:04:43.085Z,10.90
2023-03-21T06:07:10.189Z,10.90
2023-03-21T06:09:37.258Z,10.90
2023-03-21T06:12:04.430Z,10.80
2023-03-21T06:14:31.527Z,10.90
2023-03-21T06:16:58.774Z,10.80
2023-03-21T06:19:26.330Z,10.90
2023-03-21T06:21:53.436Z,10.80
2023-03-21T06:24:21.149Z,10.60
2023-03-21T06:26:48.391Z,10.80
2023-03-21T06:29:15.778Z,11.00
2023-03-21T06:31:42.943Z,10.90
2023-03-21T06:34:11.794Z,11.50
2023-03-21T06:36:38.920Z,12.00
2023-03-21T06:39:08.210Z,12.60
2023-03-21T06:41:35.364Z,13.30
2023-03-21T06:44:02.577Z,13.70
2023-03-21T06:46:29.712Z,14.00
2023-03-21T06:48:56.828Z,14.20
2023-03-21T06:51:24.056Z,14.30
2023-03-21T06:53:51.144Z,14.00
2023-03-21T06:56:18.245Z,14.00
2023-03-21T06:58:45.577Z,14.00
2023-03-21T07:01:14.618Z,14.10
2023-03-21T07:03:41.806Z,14.00
2023-03-21T07:06:11.744Z,13.80
2023-03-21T07:08:39.444Z,14.10
2023-03-21T07:11:06.888Z,13.90
2023-03-21T07:13:33.986Z,13.80
2023-03-21T07:16:01.144Z,13.70
2023-03-21T07:18:28.274Z,13.90
2023-03-21T07:20:55.576Z,13.70
2023-03-21T07:23:23.116Z,13.20
2023-03-21T07:25:50.670Z,12.80
2023-03-21T07:28:17.918Z,12.50
2023-03-21T07:30:45.746Z,12.30
2023-03-21T07:33:12.815Z,12.30
2023-03-21T07:35:40.527Z,12.40
2023-03-21T07:38:08.119Z,12.50
2023-03-21T07:40:35.219Z,12.70
2023-03-21T07:45:34.335Z,13.10
2023-03-21T07:48:01.563Z,13.10
2023-03-21T07:50:28.669Z,13.10
2023-03-21T07:52:55.811Z,13.30
2023-03-21T07:55:22.904Z,13.00
2023-03-21T07:57:51.531Z,13.20
2023-03-21T08:00:23.115Z,13.40
2023-03-21T08:02:56.471Z,13.50
2023-03-21T08:05:44.281Z,13.80
2023-03-21T08:08:11.516Z,13.50
2023-03-21T08:10:38.665Z,13.60
2023-03-21T08:13:05.841Z,13.40
2023-03-21T08:15:32.969Z,13.70
2023-03-21T08:18:00.265Z,13.80
2023-03-21T08:20:27.477Z,13.70
2023-03-21T08:22:54.731Z,13.70
2023-03-21T08:25:22.027Z,13.70
2023-03-21T08:27:49.436Z,13.60
2023-03-21T08:30:20.392Z,13.40
2023-03-21T08:32:47.515Z,13.90
2023-03-21T08:35:15.942Z,13.70
2023-03-21T08:37:43.046Z,13.70
2023-03-21T08:40:14.321Z,13.40
2023-03-21T08:42:41.700Z,13.60
2023-03-21T08:45:09.079Z,13.20
2023-03-21T08:47:36.260Z,13.30
2023-03-21T08:50:06.597Z,13.80
2023-03-21T08:52:33.863Z,13.20
2023-03-21T08:55:02.161Z,13.90
2023-03-21T08:57:29.817Z,14.10
2023-03-21T08:59:57.028Z,13.30
2023-03-21T09:02:24.173Z,13.30
2023-03-21T09:04:54.812Z,14.00
2023-03-21T09:07:22.207Z,13.90
2023-03-21T09:10:08.291Z,13.60
2023-03-21T09:12:41.060Z,14.30
2023-03-21T09:15:09.046Z,14.20
2023-03-21T09:17:36.421Z,14.20
2023-03-21T09:20:11.223Z,14.40
2023-03-21T09:22:40.711Z,13.70
2023-03-21T09:25:11.301Z,13.80
2023-03-21T09:27:38.657Z,14.50
2023-03-21T09:30:07.207Z,14.30
2023-03-21T09:32:34.502Z,14.20
2023-03-21T09:35:01.658Z,14.20
2023-03-21T09:37:29.315Z,14.70
2023-03-21T09:39:58.290Z,14.40
2023-03-21T09:43:01.561Z,14.50
2023-03-21T09:45:55.716Z,14.60
2023-03-21T09:48:34.965Z,14.40
2023-03-21T09:51:16.178Z,14.90
2023-03-21T09:53:57.119Z,14.80
2023-03-21T09:56:28.332Z,14.30
2023-03-21T10:01:55.246Z,14.20
2023-03-21T10:05:08.274Z,15.10
2023-03-21T10:08:03.258Z,15.80
2023-03-21T10:14:01.392Z,15.20
2023-03-21T10:16:38.938Z,15.10
2023-03-21T10:19:33.082Z,15.30
2023-03-21T10:22:13.600Z,15.10
2023-03-21T10:25:00.107Z,15.10
2023-03-21T10:27:56.814Z,15.00
2023-03-21T10:30:33.599Z,15.20
2023-03-21T10:33:05.216Z,15.20
2023-03-21T10:35:34.171Z,15.50
2023-03-21T10:38:04.687Z,15.70
2023-03-21T10:40:34.235Z,15.50
2023-03-21T10:43:30.800Z,16.30
2023-03-21T10:45:58.419Z,16.00
2023-03-21T10:48:26.261Z,16.40
2023-03-21T10:50:54.512Z,16.20
2023-03-21T10:53:23.244Z,15.90
2023-03-21T10:55:51.727Z,15.90
2023-03-21T10:58:19.745Z,16.40
2023-03-21T11:00:47.361Z,16.60
2023-03-21T11:03:35.125Z,16.90
2023-03-21T11:06:07.716Z,16.60
2023-03-21T11:08:39.002Z,17.40
2023-03-21T11:11:12.475Z,18.00
2023-03-21T11:13:40.935Z,17.90
2023-03-21T11:16:12.458Z,17.30
2023-03-21T11:18:43.782Z,17.60
2023-03-21T11:21:12.229Z,18.00
2023-03-21T11:23:47.903Z,18.20
2023-03-21T11:26:24.231Z,18.20
2023-03-21T11:28:51.886Z,17.50
2023-03-21T11:31:19.051Z,18.10
2023-03-21T11:33:53.926Z,18.40
2023-03-21T11:36:21.795Z,18.20
2023-03-21T11:39:11.994Z,18.70
2023-03-21T11:41:40.041Z,17.90
2023-03-21T11:44:08.888Z,17.70
2023-03-21T11:46:39.984Z,18.00
2023-03-21T11:49:08.740Z,17.70
2023-03-21T11:51:58.516Z,17.90
2023-03-21T11:54:42.175Z,18.10
2023-03-21T11:57:33.354Z,16.80
2023-03-21T12:00:32.264Z,16.40
2023-03-21T12:03:18.213Z,16.60
2023-03-21T12:09:29.670Z,16.10
2023-03-21T12:12:40.088Z,15.90
2023-03-21T12:15:12.743Z,16.10
2023-03-21T12:18:12.957Z,16.60
2023-03-21T12:20:41.051Z,17.10
2023-03-21T12:23:08.209Z,16.70
2023-03-21T12:25:38.279Z,16.80
2023-03-21T12:28:49.078Z,16.90
2023-03-21T12:34:13.723Z,16.20
2023-03-21T12:36:43.850Z,16.40
2023-03-21T12:39:24.312Z,15.80
2023-03-21T12:42:04.614Z,16.40
2023-03-21T12:44:32.805Z,15.80
2023-03-21T12:47:00.726Z,15.90
2023-03-21T12:49:46.014Z,16.10
2023-03-21T12:52:17.383Z,16.00
2023-03-21T12:54:55.570Z,16.00
2023-03-21T12:57:26.462Z,16.50
2023-03-21T12:59:59.261Z,16.00
2023-03-21T13:02:30.538Z,15.90
2023-03-21T13:05:10.492Z,16.20
2023-03-21T13:07:38.654Z,16.40
2023-03-21T13:10:13.625Z,16.10
2023-03-21T13:12:42.793Z,16.90
2023-03-21T13:15:23.222Z,16.50
2023-03-21T13:18:12.606Z,17.00
2023-03-21T13:20:44.356Z,16.50
2023-03-21T13:23:13.437Z,16.70
2023-03-21T13:25:46.104Z,16.40
2023-03-21T13:28:23.294Z,17.00
2023-03-21T13:30:50.940Z,17.50
2023-03-21T13:33:24.024Z,17.70
2023-03-21T13:36:05.362Z,17.20
2023-03-21T13:38:36.413Z,17.20
2023-03-21T13:41:07.592Z,17.30
2023-03-21T13:43:37.649Z,17.50
2023-03-21T13:46:14.090Z,18.20
2023-03-21T13:48:49.378Z,17.90
2023-03-21T13:51:20.033Z,18.00
2023-03-21T13:53:59.306Z,17.50
2023-03-21T13:56:26.566Z,18.00
2023-03-21T13:59:02.910Z,17.70
2023-03-21T14:01:34.551Z,17.30
2023-03-21T14:04:11.971Z,17.20
2023-03-21T14:06:42.103Z,18.00
2023-03-21T14:09:09.725Z,17.40
2023-03-21T14:11:38.392Z,17.00
2023-03-21T14:14:09.095Z,17.70
2023-03-21T14:16:36.427Z,18.30
2023-03-21T14:19:04.724Z,17.50
2023-03-21T14:21:33.014Z,17.30
2023-03-21T14:24:01.490Z,17.20
2023-03-21T14:26:33.057Z,17.20
2023-03-21T14:29:03.831Z,17.30
2023-03-21T14:31:32.834Z,17.90
2023-03-21T14:34:00.196Z,17.50
2023-03-21T14:36:28.933Z,16.70
2023-03-21T14:38:56.049Z,17.00
2023-03-21T14:41:24.580Z,17.10
2023-03-21T14:44:01.096Z,17.00
2023-03-21T14:46:28.230Z,17.70
2023-03-21T14:48:55.330Z,17.70
2023-03-21T14:51:22.405Z,18.20
2023-03-21T14:53:49.477Z,18.40
2023-03-21T14:56:21.327Z,17.40
2023-03-21T14:58:48.448Z,17.60
2023-03-21T15:01:27.384Z,17.60
2023-03-21T15:03:54.503Z,17.20
2023-03-21T15:06:21.617Z,16.80
2023-03-21T15:08:59.088Z,16.90
2023-03-21T15:11:33.458Z,17.10
2023-03-21T15:14:05.537Z,17.00
2023-03-21T15:16:33.591Z,16.80
2023-03-21T15:19:02.525Z,16.50
2023-03-21T15:21:39.682Z,17.10
2023-03-21T15:24:24.111Z,16.70
2023-03-21T15:26:57.030Z,16.70
2023-03-21T15:29:28.516Z,17.20
2023-03-21T15:32:28.196Z,16.80
2023-03-21T15:34:59.494Z,17.30
2023-03-21T15:37:28.007Z,17.30
2023-03-21T15:39:55.462Z,17.90
2023-03-21T15:42:23.964Z,17.30
2023-03-21T15:44:53.162Z,17.20
2023-03-21T15:47:37.025Z,17.30
2023-03-21T15:50:07.496Z,17.10
2023-03-21T15:52:34.573Z,17.30
2023-03-21T15:55:02.927Z,17.20
2023-03-21T15:57:32.880Z,17.70
2023-03-21T16:00:19.815Z,17.50
2023-03-21T16:02:47.034Z,17.70
2023-03-21T16:05:26.326Z,17.30
2023-03-21T16:07:53.495Z,17.30
2023-03-21T16:10:27.949Z,16.90
2023-03-21T16:12:55.074Z,16.80
2023-03-21T16:15:22.763Z,16.40
2023-03-21T16:17:51.737Z,16.40
2023-03-21T16:20:20.275Z,16.60
2023-03-21T16:22:47.710Z,17.00
2023-03-21T16:25:14.983Z,16.80
2023-03-21T16:27:42.259Z,17.20
2023-03-21T16:30:11.644Z,17.10
2023-03-21T16:32:38.751Z,17.10
2023-03-21T16:35:06.972Z,17.40
2023-03-21T16:37:34.292Z,17.50
2023-03-21T16:40:01.414Z,17.50
2023-03-21T16:42:28.603Z,17.20
2023-03-21T16:44:55.738Z,17.10
2023-03-21T16:47:25.633Z,16.90
2023-03-21T16:49:52.761Z,17.10
2023-03-21T16:52:19.848Z,17.70
2023-03-21T16:54:46.935Z,17.30
2023-03-21T16:57:18.252Z,17.30
2023-03-21T16:59:46.587Z,17.20
2023-03-21T17:02:14.201Z,16.90
2023-03-21T17:04:41.299Z,17.40
2023-03-21T17:07:14.190Z,17.50
2023-03-21T17:09:42.539Z,17.30
2023-03-21T17:12:16.235Z,16.70
2023-03-21T17:14:43.709Z,16.80
2023-03-21T17:17:11.529Z,16.60
2023-03-21T17:19:38.701Z,17.00
2023-03-21T17:22:05.835Z,17.40
2023-03-21T17:24:33.171Z,17.10
2023-03-21T17:27:00.817Z,17.10
2023-03-21T17:29:28.021Z,16.90
2023-03-21T17:31:55.995Z,16.30
2023-03-21T17:34:23.075Z,16.30
2023-03-21T17:36:50.465Z,16.10
2023-03-21T17:39:20.286Z,16.30
2023-03-21T17:41:47.372Z,16.20
2023-03-21T17:44:14.490Z,16.30
2023-03-21T17:46:41.818Z,16.00
2023-03-21T17:49:10.189Z,16.10
2023-03-21T17:51:37.393Z,16.50
2023-03-21T17:54:05.933Z,16.40
2023-03-21T17:56:33.935Z,16.50
2023-03-21T17:59:01.810Z,16.20
2023-03-21T18:01:30.659Z,16.60
2023-03-21T18:03:58.272Z,15.70
2023-03-21T18:06:25.923Z,15.60
2023-03-21T18:08:53.407Z,15.30
2023-03-21T18:11:21.074Z,15.70
2023-03-21T18:13:48.589Z,15.90
2023-03-21T18:16:19.070Z,15.90
2023-03-21T18:18:46.579Z,16.20
2023-03-21T18:21:14.076Z,16.30
2023-03-21T18:23:41.330Z,15.90
2023-03-21T18:26:09.597Z,15.90
2023-03-21T18:28:39.656Z,15.60
2023-03-21T18:31:14.357Z,15.90
2023-03-21T18:33:45.063Z,15.70
2023-03-21T18:36:14.231Z,15.50
2023-03-21T18:38:42.096Z,15.40
2023-03-21T18:41:09.355Z,15.10
2023-03-21T18:46:24.273Z,15.30
2023-03-21T18:48:51.811Z,15.50
2023-03-21T18:51:19.299Z,15.50
2023-03-21T18:53:46.484Z,15.50
2023-03-21T18:56:57.718Z,15.40
2023-03-21T18:59:01.857Z,15.80
2023-03-21T19:01:29.071Z,15.80
2023-03-21T19:04:19.996Z,15.70
2023-03-21T19:06:47.344Z,15.30
2023-03-21T19:09:14.684Z,15.20
2023-03-21T19:11:44.747Z,15.50
2023-03-21T19:14:12.606Z,16.20
2023-03-21T19:17:07.143Z,16.40
2023-03-21T19:19:27.425Z,15.30
2023-03-21T19:21:54.562Z,15.30
2023-03-21T19:24:27.440Z,15.10
2023-03-21T19:26:55.629Z,15.60
2023-03-21T19:29:22.719Z,15.80
2023-03-21T19:31:51.143Z,15.70
2023-03-21T19:34:18.648Z,15.30
2023-03-21T19:36:51.597Z,15.10
2023-03-21T19:39:22.218Z,15.10
2023-03-21T19:41:50.353Z,15.00
2023-03-21T19:44:17.671Z,14.90
2023-03-21T19:46:44.919Z,14.80
2023-03-21T19:49:12.048Z,14.90
2023-03-21T19:51:39.206Z,15.20
2023-03-21T19:54:06.302Z,14.90
2023-03-21T19:56:34.801Z,14.80
2023-03-21T19:59:03.399Z,14.70
2023-03-21T20:01:34.240Z,14.70
2023-03-21T20:04:02.041Z,14.60
2023-03-21T20:06:29.295Z,14.80
2023-03-21T20:11:43.571Z,14.60
2023-03-21T20:14:10.925Z,14.40
2023-03-21T20:16:38.285Z,14.40
2023-03-21T20:19:06.096Z,14.40
2023-03-21T20:21:42.207Z,14.50
2023-03-21T20:24:12.820Z,14.40
2023-03-21T20:26:40.181Z,14.40
2023-03-21T20:29:56.472Z,14.40
2023-03-21T20:31:54.401Z,14.20
2023-03-21T20:34:21.741Z,14.40
2023-03-21T20:36:49.048Z,14.30
2023-03-21T20:39:16.268Z,14.30
2023-03-21T20:41:43.374Z,14.60
2023-03-21T20:46:57.627Z,14.30
2023-03-21T20:49:24.902Z,14.20
2023-03-21T20:54:39.106Z,14.60
2023-03-21T20:57:06.250Z,14.90
2023-03-21T20:59:33.564Z,15.20
2023-03-21T21:02:00.810Z,15.00
2023-03-21T21:04:48.208Z,15.10
2023-03-21T21:07:20.327Z,14.60
2023-03-21T21:09:47.504Z,14.60
2023-03-21T21:12:15.159Z,14.50
2023-03-21T21:14:42.267Z,14.80
2023-03-21T21:17:42.808Z,14.60
2023-03-21T21:19:56.585Z,15.40
2023-03-21T21:22:23.694Z,15.70
2023-03-21T21:24:51.207Z,15.70
2023-03-21T21:27:18.286Z,15.80
2023-03-21T21:29:47.507Z,15.70
2023-03-21T21:32:18.679Z,15.90
2023-03-21T21:34:45.898Z,15.60
2023-03-21T21:37:12.996Z,15.70
2023-03-21T21:39:40.122Z,15.50
2023-03-21T21:42:07.983Z,15.20
2023-03-21T21:44:35.686Z,15.00
2023-03-21T21:47:08.388Z,15.10
2023-03-21T21:49:35.615Z,15.40
2023-03-21T21:52:05.916Z,15.10
2023-03-21T21:54:36.107Z,15.60
2023-03-21T21:57:04.006Z,15.80
2023-03-21T21:59:31.175Z,15.80
2023-03-21T22:01:58.542Z,15.70
2023-03-21T22:04:27.493Z,15.80
2023-03-21T22:06:55.284Z,15.60
2023-03-21T22:09:22.762Z,15.20
2023-03-21T22:11:49.914Z,14.60
2023-03-21T22:14:17.088Z,14.60
2023-03-21T22:16:44.551Z,14.50
2023-03-21T22:19:11.670Z,14.80
2023-03-21T22:21:38.793Z,14.30
2023-03-21T22:24:06.116Z,14.30
2023-03-21T22:26:33.604Z,14.50
2023-03-21T22:29:01.356Z,14.70
2023-03-21T22:31:28.519Z,14.60
2023-03-21T22:33:55.915Z,14.70
2023-03-21T22:36:23.073Z,14.50
2023-03-21T22:38:50.178Z,14.00
2023-03-21T22:41:17.300Z,14.20
2023-03-21T22:43:44.399Z,14.10
2023-03-21T22:46:11.615Z,14.60
2023-03-21T22:48:38.770Z,14.90
2023-03-21T22:51:06.025Z,14.50
2023-03-21T22:53:33.148Z,14.80
2023-03-21T22:56:00.311Z,15.10
2023-03-21T22:58:27.406Z,14.20
2023-03-21T23:00:58.033Z,14.20
2023-03-21T23:03:25.405Z,14.20
2023-03-21T23:05:55.145Z,14.00
2023-03-21T23:08:23.774Z,13.60
2023-03-21T23:10:50.891Z,13.40
2023-03-21T23:13:18.043Z,13.30
2023-03-21T23:15:45.234Z,13.40
2023-03-21T23:18:12.333Z,13.30
2023-03-21T23:20:39.627Z,13.30
2023-03-21T23:23:06.862Z,13.10
2023-03-21T23:25:33.970Z,13.10
2023-03-21T23:28:01.937Z,13.00
2023-03-21T23:30:29.034Z,13.10
2023-03-21T23:32:56.169Z,13.00
2023-03-21T23:35:23.335Z,13.00
2023-03-21T23:37:52.382Z,13.20
2023-03-21T23:40:20.036Z,13.00
2023-03-21T23:42:47.215Z,13.30
2023-03-21T23:45:14.370Z,13.20
2023-03-21T23:47:41.516Z,13.10
2023-03-21T23:50:09.862Z,13.10
2023-03-21T23:52:37.254Z,13.00
2023-03-21T23:55:04.981Z,12.90
2023-03-21T23:57:32.331Z,13.20
2023-03-21T23:59:59.460Z,13.40
